Aviation Digital Data Service (ADDS)

Output produced by METARs form (1530 UTC 24 August 2019)
found at http://www.aviationweather.gov/metar/data/
 
LFBA 241500Z AUTO 20004KT 120V280 CAVOK 35/12 Q1016 NOSIG
TAF LFBA 241400Z 2415/2424 21005KT CAVOK 
     BECMG 2420/2422 27010KT